createdAt,value
2019-05-21T00:00:49.250Z,3.03
2019-05-21T00:03:15.392Z,2.90
2019-05-21T00:05:41.558Z,2.73
2019-05-21T00:08:07.857Z,2.40
2019-05-21T00:10:34.138Z,2.97
2019-05-21T00:13:00.328Z,2.50
2019-05-21T00:15:26.688Z,2.97
2019-05-21T00:17:52.837Z,2.80
2019-05-21T00:20:19.357Z,2.70
2019-05-21T00:22:45.877Z,2.63
2019-05-21T00:25:17.151Z,2.50
2019-05-21T00:27:42.687Z,3.00
2019-05-21T00:30:27.388Z,2.40
2019-05-21T00:33:12.182Z,2.07
2019-05-21T00:35:56.903Z,2.33
2019-05-21T00:38:41.522Z,2.30
2019-05-21T00:41:25.937Z,2.73
2019-05-21T00:43:55.586Z,1.97
2019-05-21T00:46:21.942Z,2.20
2019-05-21T00:48:48.269Z,1.93
2019-05-21T00:51:14.755Z,1.77
2019-05-21T00:53:41.016Z,2.00
2019-05-21T00:56:07.396Z,1.97
2019-05-21T00:58:33.556Z,2.30
2019-05-21T01:01:00.066Z,1.70
2019-05-21T01:03:26.424Z,2.00
2019-05-21T01:05:52.821Z,1.70
2019-05-21T01:08:19.003Z,2.07
2019-05-21T01:10:45.362Z,1.50
2019-05-21T01:13:11.491Z,1.80
2019-05-21T01:15:37.914Z,2.00
2019-05-21T01:18:04.237Z,1.73
2019-05-21T01:20:30.590Z,1.73
2019-05-21T01:22:56.889Z,1.57
2019-05-21T01:25:25.969Z,1.67
2019-05-21T01:27:52.203Z,2.57
2019-05-21T01:30:18.567Z,1.97
2019-05-21T01:32:44.741Z,2.43
2019-05-21T01:35:17.311Z,2.27
2019-05-21T01:37:39.506Z,2.53
2019-05-21T01:40:05.745Z,2.37
2019-05-21T01:42:31.895Z,2.10
2019-05-21T01:44:58.395Z,2.50
2019-05-21T01:47:24.554Z,3.40
2019-05-21T01:49:50.734Z,3.63
2019-05-21T01:52:17.077Z,3.00
2019-05-21T01:54:43.347Z,2.87
2019-05-21T01:57:09.923Z,3.03
2019-05-21T01:59:36.193Z,3.50
2019-05-21T02:02:02.593Z,2.70
2019-05-21T02:04:28.843Z,3.20
2019-05-21T02:06:55.354Z,2.80
2019-05-21T02:09:21.654Z,2.90
2019-05-21T02:11:48.067Z,3.40
2019-05-21T02:14:14.322Z,3.37
2019-05-21T02:16:40.637Z,3.63
2019-05-21T02:19:06.793Z,3.17
2019-05-21T02:21:33.086Z,3.47
2019-05-21T02:23:59.341Z,3.50
2019-05-21T02:26:25.649Z,3.40
2019-05-21T02:28:51.902Z,3.63
2019-05-21T02:31:18.242Z,3.43
2019-05-21T02:33:44.505Z,3.80
2019-05-21T02:36:11.186Z,3.70
2019-05-21T02:38:37.771Z,3.20
2019-05-21T02:41:04.116Z,3.10
2019-05-21T02:43:30.358Z,3.03
2019-05-21T02:45:56.802Z,1.67
2019-05-21T02:48:23.310Z,1.50
2019-05-21T02:50:49.710Z,1.60
2019-05-21T02:53:16.062Z,1.40
2019-05-21T02:55:42.580Z,1.40
2019-05-21T02:58:08.835Z,1.07
2019-05-21T03:00:57.792Z,1.17
2019-05-21T03:03:26.874Z,1.03
2019-05-21T03:06:10.467Z,1.20
2019-05-21T03:08:21.436Z,1.27
2019-05-21T03:10:47.869Z,1.20
2019-05-21T03:13:14.140Z,1.00
2019-05-21T03:15:40.697Z,1.33
2019-05-21T03:18:06.970Z,1.20
2019-05-21T03:20:33.320Z,1.23
2019-05-21T03:22:59.588Z,1.07
2019-05-21T03:25:29.272Z,1.20
2019-05-21T03:27:56.774Z,1.60
2019-05-21T03:30:23.016Z,1.00
2019-05-21T03:32:49.565Z,0.90
2019-05-21T03:35:16.193Z,1.20
2019-05-21T03:37:42.458Z,1.37
2019-05-21T03:40:09.387Z,0.80
2019-05-21T03:42:35.663Z,1.10
2019-05-21T03:45:02.074Z,1.00
2019-05-21T03:47:28.488Z,1.20
2019-05-21T03:49:54.857Z,1.37
2019-05-21T03:52:21.101Z,1.10
2019-05-21T03:54:47.405Z,0.90
2019-05-21T03:57:13.658Z,1.20
2019-05-21T03:59:40.009Z,1.20
2019-05-21T04:02:06.394Z,1.07
2019-05-21T04:04:33.020Z,1.60
2019-05-21T04:06:59.296Z,1.47
2019-05-21T04:09:25.839Z,1.20
2019-05-21T04:11:53.279Z,1.43
2019-05-21T04:14:36.855Z,1.30
2019-05-21T04:17:12.570Z,0.90
2019-05-21T04:19:39.680Z,0.97
2019-05-21T04:22:08.434Z,1.10
2019-05-21T04:24:34.676Z,0.83
2019-05-21T04:27:01.002Z,0.80
2019-05-21T04:29:27.482Z,0.50
2019-05-21T04:31:53.941Z,0.43
2019-05-21T04:34:20.379Z,0.37
2019-05-21T04:36:46.915Z,0.30
2019-05-21T04:39:13.106Z,0.30
2019-05-21T04:41:39.625Z,0.30
2019-05-21T04:44:05.886Z,0.20
2019-05-21T04:46:32.110Z,0.30
2019-05-21T04:48:58.387Z,0.30
2019-05-21T04:51:24.786Z,0.40
2019-05-21T04:53:51.066Z,0.40
2019-05-21T04:56:17.421Z,0.40
2019-05-21T04:58:43.570Z,0.23
2019-05-21T05:01:09.936Z,0.30
2019-05-21T05:03:36.216Z,0.40
2019-05-21T05:06:02.627Z,0.30
2019-05-21T05:08:28.913Z,0.20
2019-05-21T05:10:55.130Z,0.30
2019-05-21T05:13:21.518Z,0.20
2019-05-21T05:15:47.850Z,0.30
2019-05-21T05:18:14.105Z,0.27
2019-05-21T05:20:40.408Z,0.20
2019-05-21T05:23:06.697Z,0.40
2019-05-21T05:25:33.053Z,0.40
2019-05-21T05:27:59.337Z,0.30
2019-05-21T05:30:25.744Z,0.20
2019-05-21T05:32:51.995Z,0.27
2019-05-21T05:35:18.322Z,0.20
2019-05-21T05:37:48.334Z,0.30
2019-05-21T05:40:13.099Z,0.30
2019-05-21T05:42:39.468Z,0.20
2019-05-21T05:45:06.286Z,0.33
2019-05-21T05:47:32.790Z,0.30
2019-05-21T05:50:01.219Z,0.30
2019-05-21T05:52:27.470Z,0.30
2019-05-21T05:54:53.903Z,0.23
2019-05-21T05:57:20.176Z,0.20
2019-05-21T05:59:46.438Z,0.30
2019-05-21T06:02:12.918Z,0.30
2019-05-21T06:04:39.161Z,0.30
2019-05-21T06:07:05.402Z,0.20
2019-05-21T06:09:31.904Z,0.23
2019-05-21T06:11:58.178Z,0.20
2019-05-21T06:14:24.775Z,0.30
2019-05-21T06:16:51.135Z,0.20
2019-05-21T06:19:17.388Z,0.20
2019-05-21T06:21:43.675Z,0.20
2019-05-21T06:24:13.333Z,0.10
2019-05-21T06:26:38.290Z,0.20
2019-05-21T06:29:04.685Z,0.20
2019-05-21T06:31:31.018Z,0.20
2019-05-21T06:33:57.282Z,0.30
2019-05-21T06:36:23.761Z,0.20
2019-05-21T06:38:50.147Z,0.20
2019-05-21T06:41:16.482Z,0.30
2019-05-21T06:43:42.822Z,0.27
2019-05-21T06:46:09.117Z,0.20
2019-05-21T06:48:35.691Z,0.30
2019-05-21T06:51:01.899Z,0.13
2019-05-21T06:53:28.070Z,0.20
2019-05-21T06:55:54.320Z,0.20
2019-05-21T06:58:20.595Z,0.30
2019-05-21T07:00:46.842Z,0.20
2019-05-21T07:03:13.194Z,0.30
2019-05-21T07:05:56.084Z,0.30
2019-05-21T07:08:07.911Z,0.20
2019-05-21T07:10:34.098Z,0.30
2019-05-21T07:13:00.438Z,0.30
2019-05-21T07:15:26.599Z,0.30
2019-05-21T07:17:52.885Z,0.40
2019-05-21T07:20:19.601Z,0.60
2019-05-21T07:22:46.044Z,0.40
2019-05-21T07:25:12.562Z,0.40
2019-05-21T07:27:38.925Z,0.60
2019-05-21T07:30:05.506Z,0.50
2019-05-21T07:32:32.017Z,0.40
2019-05-21T07:34:58.295Z,0.60
2019-05-21T07:37:24.563Z,0.50
2019-05-21T07:39:51.139Z,0.63
2019-05-21T07:42:17.491Z,0.60
2019-05-21T07:44:43.793Z,0.50
2019-05-21T07:47:10.106Z,0.60
2019-05-21T07:49:36.422Z,0.50
2019-05-21T07:52:02.762Z,0.70
2019-05-21T07:54:29.104Z,0.67
2019-05-21T07:56:55.399Z,0.50
2019-05-21T07:59:21.774Z,0.80
2019-05-21T08:01:48.326Z,0.90
2019-05-21T08:04:14.829Z,0.70
2019-05-21T08:06:40.977Z,0.80
2019-05-21T08:09:14.277Z,0.90
2019-05-21T08:11:36.180Z,0.70
2019-05-21T08:14:02.439Z,0.53
2019-05-21T08:16:28.768Z,0.70
2019-05-21T08:18:55.052Z,0.80
2019-05-21T08:21:21.757Z,0.73
2019-05-21T08:23:48.347Z,0.70
2019-05-21T08:26:14.646Z,0.80
2019-05-21T08:28:41.007Z,0.57
2019-05-21T08:31:07.313Z,0.67
2019-05-21T08:33:33.555Z,0.70
2019-05-21T08:35:59.918Z,0.63
2019-05-21T08:38:26.171Z,0.63
2019-05-21T08:40:52.531Z,0.70
2019-05-21T08:43:22.008Z,0.50
2019-05-21T08:45:46.817Z,0.70
2019-05-21T08:48:13.077Z,0.43
2019-05-21T08:50:39.851Z,0.50
2019-05-21T08:53:06.201Z,0.70
2019-05-21T08:55:32.455Z,0.57
2019-05-21T08:58:06.804Z,0.57
2019-05-21T09:00:27.314Z,0.80
2019-05-21T09:02:53.573Z,0.60
2019-05-21T09:05:20.407Z,0.60
2019-05-21T09:07:52.958Z,0.47
2019-05-21T09:10:15.933Z,0.50
2019-05-21T09:12:42.228Z,0.40
2019-05-21T09:15:08.838Z,0.50
2019-05-21T09:17:35.086Z,0.47
2019-05-21T09:20:01.343Z,0.43
2019-05-21T09:22:27.614Z,0.50
2019-05-21T09:24:53.891Z,0.30
2019-05-21T09:27:20.221Z,0.40
2019-05-21T09:29:46.516Z,0.70
2019-05-21T09:32:12.735Z,0.40
2019-05-21T09:34:48.920Z,0.50
2019-05-21T09:37:19.154Z,0.30
2019-05-21T09:39:35.423Z,0.37
2019-05-21T09:42:01.748Z,0.50
2019-05-21T09:44:28.077Z,0.30
2019-05-21T09:46:54.586Z,0.63
2019-05-21T09:49:20.733Z,0.30
2019-05-21T09:51:46.990Z,0.40
2019-05-21T09:54:13.149Z,0.60
2019-05-21T09:56:39.702Z,0.60
2019-05-21T09:59:26.103Z,0.40
2019-05-21T10:01:54.442Z,0.50
2019-05-21T10:04:20.686Z,0.40
2019-05-21T10:06:46.953Z,0.50
2019-05-21T10:09:17.570Z,0.50
2019-05-21T10:11:43.915Z,0.40
2019-05-21T10:14:10.282Z,0.60
2019-05-21T10:16:36.547Z,0.70
2019-05-21T10:19:02.905Z,0.30
2019-05-21T10:21:29.577Z,0.40
2019-05-21T10:23:55.743Z,0.40
2019-05-21T10:26:22.365Z,0.43
2019-05-21T10:28:48.556Z,0.80
2019-05-21T10:31:15.137Z,0.70
2019-05-21T10:33:41.390Z,0.50
2019-05-21T10:36:08.081Z,0.30
2019-05-21T10:38:34.501Z,0.50
2019-05-21T10:41:00.859Z,0.70
2019-05-21T10:43:27.114Z,1.40
2019-05-21T10:45:53.457Z,0.30
2019-05-21T10:48:19.851Z,0.30
2019-05-21T10:50:46.130Z,0.20
2019-05-21T10:53:12.479Z,0.10
2019-05-21T10:55:38.801Z,0.20
2019-05-21T10:58:05.402Z,0.20
2019-05-21T11:00:31.796Z,0.20
2019-05-21T11:03:02.170Z,0.20
2019-05-21T11:05:49.879Z,0.53
2019-05-21T11:08:25.100Z,0.20
2019-05-21T11:10:44.539Z,0.20
2019-05-21T11:13:11.174Z,0.20
2019-05-21T11:15:37.531Z,0.20
2019-05-21T11:18:12.028Z,0.20
2019-05-21T11:20:32.489Z,0.20
2019-05-21T11:22:59.087Z,0.10
2019-05-21T11:25:25.415Z,0.30
2019-05-21T11:27:51.780Z,0.20
2019-05-21T11:30:18.443Z,0.20
2019-05-21T11:32:47.833Z,0.20
2019-05-21T11:35:13.213Z,0.10
2019-05-21T11:37:39.485Z,0.30
2019-05-21T11:40:08.470Z,0.40
2019-05-21T11:42:34.396Z,0.20
2019-05-21T11:45:00.742Z,0.20
2019-05-21T11:47:26.999Z,0.30
2019-05-21T11:49:53.272Z,0.17
2019-05-21T11:52:19.522Z,0.10
2019-05-21T11:54:45.815Z,0.17
2019-05-21T11:57:12.204Z,0.20
2019-05-21T11:59:38.718Z,0.13
2019-05-21T12:02:07.529Z,0.23
2019-05-21T12:04:34.013Z,0.20
2019-05-21T12:07:03.352Z,0.20
2019-05-21T12:09:30.635Z,0.10
2019-05-21T12:11:57.218Z,0.10
2019-05-21T12:14:23.403Z,0.20
2019-05-21T12:16:49.963Z,0.20
2019-05-21T12:19:16.541Z,0.20
2019-05-21T12:21:42.900Z,0.10
2019-05-21T12:24:09.149Z,0.20
2019-05-21T12:26:35.514Z,0.20
2019-05-21T12:29:01.794Z,0.20
2019-05-21T12:31:28.159Z,0.20
2019-05-21T12:33:54.412Z,0.30
2019-05-21T12:36:20.874Z,0.20
2019-05-21T12:38:47.133Z,0.33
2019-05-21T12:41:14.113Z,0.20
2019-05-21T12:43:40.535Z,0.10
2019-05-21T12:46:06.787Z,0.20
2019-05-21T12:48:33.278Z,0.20
2019-05-21T12:50:59.539Z,0.20
2019-05-21T12:53:25.681Z,0.20
2019-05-21T12:55:51.980Z,0.20
2019-05-21T12:58:18.125Z,0.23
2019-05-21T13:00:44.522Z,0.13
2019-05-21T13:03:10.971Z,0.30
2019-05-21T13:05:37.227Z,0.40
2019-05-21T13:08:03.561Z,0.20
2019-05-21T13:10:29.934Z,0.30
2019-05-21T13:12:58.259Z,0.20
2019-05-21T13:15:24.546Z,0.20
2019-05-21T13:17:50.950Z,0.30
2019-05-21T13:20:17.318Z,0.20
2019-05-21T13:22:43.735Z,0.20
2019-05-21T13:25:10.101Z,0.30
2019-05-21T13:27:36.670Z,0.30
2019-05-21T13:30:03.853Z,0.30
2019-05-21T13:32:30.215Z,0.20
2019-05-21T13:34:56.374Z,0.37
2019-05-21T13:37:22.714Z,0.30
2019-05-21T13:39:50.568Z,0.50
2019-05-21T13:42:17.123Z,0.23
2019-05-21T13:44:43.517Z,0.30
2019-05-21T13:47:10.114Z,0.10
2019-05-21T13:49:36.425Z,0.43
2019-05-21T13:52:02.710Z,0.30
2019-05-21T13:54:28.962Z,0.30
2019-05-21T13:56:55.130Z,0.27
2019-05-21T13:59:21.519Z,0.53
2019-05-21T14:01:48.000Z,0.40
2019-05-21T14:04:14.725Z,0.57
2019-05-21T14:06:41.004Z,0.43
2019-05-21T14:09:07.402Z,0.60
2019-05-21T14:11:33.662Z,0.30
2019-05-21T14:14:00.043Z,0.40
2019-05-21T14:16:26.694Z,0.70
2019-05-21T14:18:53.026Z,0.40
2019-05-21T14:21:19.287Z,0.40
2019-05-21T14:23:45.637Z,0.30
2019-05-21T14:26:11.992Z,0.40
2019-05-21T14:28:38.389Z,0.30
2019-05-21T14:31:05.089Z,0.30
2019-05-21T14:33:31.710Z,0.47
2019-05-21T14:35:58.061Z,0.50
2019-05-21T14:38:24.305Z,0.47
2019-05-21T14:40:50.514Z,0.67
2019-05-21T14:43:16.796Z,0.60
2019-05-21T14:45:43.158Z,0.50
2019-05-21T14:48:09.406Z,0.70
2019-05-21T14:50:35.660Z,0.70
2019-05-21T14:53:01.943Z,0.60
2019-05-21T14:55:28.466Z,1.00
2019-05-21T14:57:58.579Z,0.40
2019-05-21T15:00:30.737Z,0.70
2019-05-21T15:02:57.278Z,0.60
2019-05-21T15:05:24.601Z,0.80
2019-05-21T15:07:50.985Z,0.67
2019-05-21T15:10:17.356Z,0.70
2019-05-21T15:12:43.697Z,0.80
2019-05-21T15:15:10.167Z,0.90
2019-05-21T15:17:36.439Z,0.67
2019-05-21T15:20:06.289Z,1.00
2019-05-21T15:22:32.726Z,1.10
2019-05-21T15:24:58.874Z,0.90
2019-05-21T15:27:25.163Z,0.90
2019-05-21T15:29:51.509Z,0.90
2019-05-21T15:32:17.760Z,1.03
2019-05-21T15:34:44.185Z,1.20
2019-05-21T15:37:10.399Z,1.20
2019-05-21T15:39:36.599Z,0.90
2019-05-21T15:42:02.918Z,1.10
2019-05-21T15:44:29.198Z,1.10
2019-05-21T15:46:55.761Z,1.30
2019-05-21T15:49:35.148Z,1.10
2019-05-21T15:51:50.379Z,1.20
2019-05-21T15:54:16.918Z,1.10
2019-05-21T15:56:43.231Z,0.97
2019-05-21T15:59:09.530Z,0.90
2019-05-21T16:01:35.929Z,1.10
2019-05-21T16:04:02.463Z,0.90
2019-05-21T16:06:28.911Z,0.87
2019-05-21T16:08:55.306Z,0.80
2019-05-21T16:11:28.553Z,0.73
2019-05-21T16:13:49.877Z,0.57
2019-05-21T16:16:16.242Z,0.60
2019-05-21T16:18:42.917Z,0.63
2019-05-21T16:21:09.048Z,0.50
2019-05-21T16:23:35.472Z,0.50
2019-05-21T16:26:01.845Z,0.50
2019-05-21T16:28:28.374Z,0.70
2019-05-21T16:30:54.681Z,0.40
2019-05-21T16:33:20.972Z,0.47
2019-05-21T16:35:47.125Z,1.00
2019-05-21T16:38:13.942Z,0.57
2019-05-21T16:40:40.231Z,0.50
2019-05-21T16:43:06.590Z,0.50
2019-05-21T16:45:32.914Z,0.60
2019-05-21T16:47:59.306Z,0.70
2019-05-21T16:50:25.856Z,0.70
2019-05-21T16:52:52.743Z,0.60
2019-05-21T16:55:19.179Z,0.50
2019-05-21T16:57:45.942Z,0.83
2019-05-21T17:00:14.807Z,0.80
2019-05-21T17:02:41.118Z,0.93
2019-05-21T17:05:07.466Z,0.97
2019-05-21T17:07:33.714Z,1.00
2019-05-21T17:09:59.970Z,0.70
2019-05-21T17:12:26.253Z,1.10
2019-05-21T17:14:52.574Z,0.97
2019-05-21T17:17:18.918Z,1.40
2019-05-21T17:19:45.164Z,1.43
2019-05-21T17:22:11.435Z,1.40
2019-05-21T17:24:37.790Z,1.67
2019-05-21T17:27:04.051Z,1.70
2019-05-21T17:29:31.024Z,1.97
2019-05-21T17:31:57.276Z,2.23
2019-05-21T17:34:23.423Z,1.97
2019-05-21T17:36:49.783Z,2.00
2019-05-21T17:39:15.961Z,1.40
2019-05-21T17:41:42.315Z,1.53
2019-05-21T17:44:08.610Z,1.77
2019-05-21T17:46:34.863Z,1.30
2019-05-21T17:49:01.367Z,1.33
2019-05-21T17:51:28.053Z,1.53
2019-05-21T17:53:54.798Z,1.40
2019-05-21T17:56:21.188Z,1.60
2019-05-21T17:58:47.442Z,1.10
2019-05-21T18:01:14.361Z,1.10
2019-05-21T18:03:40.749Z,1.50
2019-05-21T18:06:08.066Z,1.40
2019-05-21T18:08:37.063Z,1.40
2019-05-21T18:11:03.939Z,1.37
2019-05-21T18:13:31.065Z,1.43
2019-05-21T18:15:58.814Z,1.47
2019-05-21T18:18:25.223Z,1.40
2019-05-21T18:20:52.484Z,1.23
2019-05-21T18:23:19.250Z,1.50
2019-05-21T18:25:45.613Z,1.50
2019-05-21T18:28:12.028Z,1.33
2019-05-21T18:30:38.558Z,1.83
2019-05-21T18:33:04.953Z,1.77
2019-05-21T18:35:31.309Z,1.93
2019-05-21T18:37:58.063Z,1.67
2019-05-21T18:40:25.184Z,2.07
2019-05-21T18:42:51.698Z,1.87
2019-05-21T18:45:18.252Z,2.17
2019-05-21T18:47:47.286Z,1.97
2019-05-21T18:50:14.371Z,1.87
2019-05-21T18:52:40.662Z,2.90
2019-05-21T18:55:07.006Z,2.10
2019-05-21T18:57:33.505Z,2.40
2019-05-21T19:00:00.065Z,2.20
2019-05-21T19:02:26.929Z,2.17
2019-05-21T19:04:53.366Z,1.93
2019-05-21T19:07:19.874Z,2.10
2019-05-21T19:09:46.190Z,2.40
2019-05-21T19:12:15.125Z,2.43
2019-05-21T19:14:45.169Z,2.47
2019-05-21T19:17:09.690Z,2.20
2019-05-21T19:19:35.843Z,2.73
2019-05-21T19:22:01.998Z,2.60
2019-05-21T19:24:28.482Z,3.47
2019-05-21T19:26:54.725Z,2.90
2019-05-21T19:29:21.048Z,3.00
2019-05-21T19:31:49.267Z,2.90
2019-05-21T19:34:15.542Z,3.00
2019-05-21T19:36:42.008Z,2.80
2019-05-21T19:39:08.570Z,3.10
2019-05-21T19:41:34.890Z,2.73
2019-05-21T19:44:01.412Z,2.90
2019-05-21T19:46:28.130Z,3.07
2019-05-21T19:48:54.667Z,3.70
2019-05-21T19:51:20.975Z,3.07
2019-05-21T19:53:47.374Z,3.23
2019-05-21T19:56:13.730Z,3.37
2019-05-21T19:58:40.258Z,4.03
2019-05-21T20:01:09.319Z,3.60
2019-05-21T20:03:35.609Z,4.47
2019-05-21T20:06:03.922Z,3.97
2019-05-21T20:08:30.294Z,4.13
2019-05-21T20:10:56.862Z,4.20
2019-05-21T20:13:32.220Z,4.90
2019-05-21T20:15:51.715Z,4.10
2019-05-21T20:18:18.637Z,4.37
2019-05-21T20:20:45.001Z,4.83
2019-05-21T20:23:16.314Z,4.43
2019-05-21T20:25:55.903Z,4.50
2019-05-21T20:28:11.854Z,3.73
2019-05-21T20:30:38.643Z,4.50
2019-05-21T20:33:06.882Z,4.03
2019-05-21T20:35:33.219Z,5.40
2019-05-21T20:37:59.788Z,4.77
2019-05-21T20:40:26.163Z,5.07
2019-05-21T20:42:53.773Z,4.27
2019-05-21T20:45:21.838Z,4.43
2019-05-21T20:47:50.090Z,4.63
2019-05-21T20:50:18.271Z,5.40
2019-05-21T20:52:44.646Z,5.53
2019-05-21T20:55:11.819Z,5.30
2019-05-21T20:57:38.149Z,5.93
2019-05-21T21:00:04.468Z,4.77
2019-05-21T21:02:31.205Z,4.90
2019-05-21T21:04:57.669Z,5.10
2019-05-21T21:07:24.426Z,4.77
2019-05-21T21:09:50.981Z,5.07
2019-05-21T21:12:17.581Z,5.30
2019-05-21T21:14:44.421Z,5.30
2019-05-21T21:17:12.938Z,5.30
2019-05-21T21:19:39.249Z,4.53
2019-05-21T21:22:05.722Z,4.97
2019-05-21T21:24:32.348Z,4.80
2019-05-21T21:26:59.389Z,4.60
2019-05-21T21:29:25.871Z,4.60
2019-05-21T21:31:52.286Z,4.40
2019-05-21T21:34:18.616Z,4.10
2019-05-21T21:36:45.031Z,4.17
2019-05-21T21:39:11.411Z,3.90
2019-05-21T21:41:38.142Z,4.40
2019-05-21T21:44:04.470Z,4.83
2019-05-21T21:46:30.977Z,4.17
2019-05-21T21:48:57.809Z,4.43
2019-05-21T21:51:24.518Z,3.80
2019-05-21T21:53:50.917Z,3.83
2019-05-21T21:56:17.379Z,3.53
2019-05-21T21:58:43.607Z,3.60
2019-05-21T22:01:44.177Z,3.60
2019-05-21T22:04:11.773Z,3.30
2019-05-21T22:06:40.362Z,4.17
2019-05-21T22:09:14.225Z,3.10
2019-05-21T22:11:41.158Z,3.20
2019-05-21T22:14:07.707Z,3.67
2019-05-21T22:16:34.383Z,3.80
2019-05-21T22:19:01.145Z,3.47
2019-05-21T22:21:27.431Z,3.57
2019-05-21T22:23:53.798Z,3.07
2019-05-21T22:26:20.389Z,4.30
2019-05-21T22:28:46.538Z,3.40
2019-05-21T22:31:12.698Z,3.47
2019-05-21T22:33:39.046Z,3.20
2019-05-21T22:36:06.895Z,3.20
2019-05-21T22:38:33.230Z,3.17
2019-05-21T22:40:59.873Z,3.03
2019-05-21T22:43:26.886Z,3.60
2019-05-21T22:45:53.146Z,3.60
2019-05-21T22:48:19.398Z,3.70
2019-05-21T22:50:45.841Z,3.17
2019-05-21T22:53:12.170Z,3.23
2019-05-21T22:55:38.322Z,3.57
2019-05-21T22:58:05.489Z,3.80
2019-05-21T23:00:32.186Z,3.57
2019-05-21T23:02:58.905Z,3.50
2019-05-21T23:05:25.182Z,3.27
2019-05-21T23:07:51.451Z,3.47
2019-05-21T23:10:19.144Z,2.77
2019-05-21T23:12:45.569Z,2.77
2019-05-21T23:15:24.324Z,2.53
2019-05-21T23:17:39.987Z,2.83
2019-05-21T23:20:07.350Z,2.73
2019-05-21T23:22:35.143Z,3.33
2019-05-21T23:25:01.987Z,2.67
2019-05-21T23:27:28.614Z,2.20
2019-05-21T23:29:55.174Z,2.37
2019-05-21T23:32:21.672Z,2.17
2019-05-21T23:34:48.658Z,2.47
2019-05-21T23:37:19.558Z,2.10
2019-05-21T23:39:47.623Z,2.47
2019-05-21T23:42:27.201Z,2.50
2019-05-21T23:44:41.867Z,2.00
2019-05-21T23:47:12.006Z,2.30
2019-05-21T23:49:38.253Z,2.43
2019-05-21T23:52:05.018Z,2.13
2019-05-21T23:54:31.192Z,2.20
2019-05-21T23:56:58.653Z,2.40
2019-05-21T23:59:25.448Z,2.40
